createdAt,value
2017-10-02T00:01:40.573Z,2.90
2017-10-02T00:04:07.174Z,2.60
2017-10-02T00:06:33.779Z,4.00
2017-10-02T00:09:00.427Z,2.97
2017-10-02T00:11:27.031Z,2.77
2017-10-02T00:13:53.631Z,2.80
2017-10-02T00:16:20.246Z,2.90
2017-10-02T00:18:46.891Z,3.63
2017-10-02T00:21:13.553Z,2.43
2017-10-02T00:23:40.203Z,2.83
2017-10-02T00:26:06.817Z,3.00
2017-10-02T00:28:33.438Z,2.57
2017-10-02T00:31:00.060Z,2.23
2017-10-02T00:33:26.681Z,2.80
2017-10-02T00:35:53.305Z,4.23
2017-10-02T00:38:19.915Z,3.27
2017-10-02T00:40:46.530Z,2.50
2017-10-02T00:43:13.166Z,2.90
2017-10-02T00:45:39.767Z,3.20
2017-10-02T00:48:06.411Z,3.00
2017-10-02T00:50:33.040Z,2.63
2017-10-02T00:52:59.699Z,2.67
2017-10-02T00:55:26.294Z,2.93
2017-10-02T00:57:52.918Z,2.53
2017-10-02T01:00:19.546Z,2.10
2017-10-02T01:02:46.137Z,3.10
2017-10-02T01:05:12.750Z,2.00
2017-10-02T01:07:39.390Z,3.20
2017-10-02T01:10:05.997Z,2.10
2017-10-02T01:12:32.619Z,3.03
2017-10-02T01:14:59.226Z,2.40
2017-10-02T01:17:25.858Z,2.30
2017-10-02T01:19:52.501Z,2.20
2017-10-02T01:22:19.135Z,2.60
2017-10-02T01:24:45.738Z,2.53
2017-10-02T01:27:12.406Z,2.40
2017-10-02T01:29:39.020Z,2.87
2017-10-02T01:32:05.639Z,2.40
2017-10-02T01:34:32.271Z,2.40
2017-10-02T01:36:58.891Z,2.60
2017-10-02T01:39:25.524Z,2.33
2017-10-02T01:41:52.157Z,2.23
2017-10-02T01:44:18.794Z,2.70
2017-10-02T01:46:45.402Z,2.87
2017-10-02T01:49:12.059Z,3.20
2017-10-02T01:51:38.653Z,3.53
2017-10-02T01:54:05.264Z,2.30
2017-10-02T01:56:31.907Z,2.80
2017-10-02T01:58:58.551Z,2.33
2017-10-02T02:01:25.186Z,2.83
2017-10-02T02:03:51.816Z,2.70
2017-10-02T02:06:18.493Z,2.97
2017-10-02T02:08:45.123Z,3.00
2017-10-02T02:11:11.738Z,3.33
2017-10-02T02:13:38.382Z,3.10
2017-10-02T02:16:05.027Z,3.37
2017-10-02T02:18:31.665Z,3.77
2017-10-02T02:20:58.273Z,3.20
2017-10-02T02:23:24.899Z,3.37
2017-10-02T02:25:51.514Z,3.30
2017-10-02T02:28:18.139Z,3.43
2017-10-02T02:30:44.775Z,3.00
2017-10-02T02:33:11.400Z,2.97
2017-10-02T02:35:38.036Z,3.60
2017-10-02T02:38:04.651Z,3.27
2017-10-02T02:40:31.282Z,2.90
2017-10-02T02:42:57.891Z,3.70
2017-10-02T02:45:24.535Z,3.57
2017-10-02T02:47:51.162Z,3.37
2017-10-02T02:50:17.770Z,2.70
2017-10-02T02:52:44.398Z,2.57
2017-10-02T02:55:11.027Z,2.70
2017-10-02T02:57:37.635Z,2.70
2017-10-02T03:00:04.250Z,2.47
2017-10-02T03:02:31.847Z,3.37
2017-10-02T03:04:58.475Z,2.93
2017-10-02T03:07:25.114Z,2.50
2017-10-02T03:09:51.770Z,3.67
2017-10-02T03:12:18.392Z,3.60
2017-10-02T03:14:44.994Z,3.57
2017-10-02T03:17:11.635Z,3.00
2017-10-02T03:19:38.275Z,3.63
2017-10-02T03:22:04.920Z,3.70
2017-10-02T03:24:31.547Z,3.47
2017-10-02T03:26:58.178Z,4.20
2017-10-02T03:29:24.843Z,3.77
2017-10-02T03:31:51.478Z,4.67
2017-10-02T03:34:18.123Z,4.13
2017-10-02T03:36:44.735Z,3.93
2017-10-02T03:39:11.345Z,3.57
2017-10-02T03:41:37.964Z,4.67
2017-10-02T03:44:04.610Z,4.73
2017-10-02T03:46:31.233Z,3.90
2017-10-02T03:48:58.023Z,3.20
2017-10-02T03:51:24.649Z,3.10
2017-10-02T03:53:51.293Z,3.03
2017-10-02T03:56:17.972Z,3.90
2017-10-02T03:58:44.583Z,2.90
2017-10-02T04:01:11.246Z,3.13
2017-10-02T04:03:37.891Z,4.17
2017-10-02T04:06:04.521Z,3.43
2017-10-02T04:08:31.135Z,3.20
2017-10-02T04:10:57.775Z,3.87
2017-10-02T04:13:24.398Z,4.27
2017-10-02T04:15:51.046Z,4.30
2017-10-02T04:18:17.651Z,5.50
2017-10-02T04:20:44.276Z,4.10
2017-10-02T04:23:10.884Z,5.33
2017-10-02T04:25:37.528Z,3.53
2017-10-02T04:28:04.235Z,2.90
2017-10-02T04:30:30.866Z,3.37
2017-10-02T04:32:57.525Z,4.27
2017-10-02T04:42:08.973Z,4.43
2017-10-02T04:44:35.587Z,4.27
2017-10-02T04:47:02.195Z,5.10
2017-10-02T04:49:28.840Z,4.30
2017-10-02T04:51:55.451Z,3.50
2017-10-02T04:54:22.098Z,3.73
2017-10-02T04:56:48.726Z,4.37
2017-10-02T04:59:15.360Z,4.00
2017-10-02T05:01:42.004Z,3.70
2017-10-02T05:04:08.611Z,3.73
2017-10-02T05:06:35.249Z,6.43
2017-10-02T05:09:01.852Z,3.00
2017-10-02T05:11:28.475Z,3.43
2017-10-02T05:13:55.107Z,3.40
2017-10-02T05:16:21.705Z,3.73
2017-10-02T05:18:48.473Z,4.30
2017-10-02T05:21:15.091Z,2.90
2017-10-02T05:23:41.740Z,3.10
2017-10-02T05:26:08.379Z,3.60
2017-10-02T05:28:34.981Z,3.70
2017-10-02T05:31:01.617Z,3.20
2017-10-02T05:33:28.226Z,3.03
2017-10-02T05:35:54.872Z,2.70
2017-10-02T05:38:21.474Z,3.00
2017-10-02T05:40:48.086Z,2.73
2017-10-02T05:43:14.746Z,3.30
2017-10-02T05:45:41.366Z,2.90
2017-10-02T05:48:08.003Z,3.50
2017-10-02T05:50:34.657Z,3.10
2017-10-02T05:53:01.284Z,2.80
2017-10-02T05:55:27.900Z,2.13
2017-10-02T05:57:54.538Z,4.07
2017-10-02T06:00:21.187Z,2.63
2017-10-02T06:02:47.834Z,2.50
2017-10-02T06:05:14.442Z,2.13
2017-10-02T06:07:41.088Z,2.60
2017-10-02T06:10:07.739Z,2.60
2017-10-02T06:12:34.379Z,2.50
2017-10-02T06:15:01.006Z,2.30
2017-10-02T06:17:27.630Z,2.57
2017-10-02T06:19:54.250Z,1.83
2017-10-02T06:22:20.869Z,3.13
2017-10-02T06:24:47.509Z,2.00
2017-10-02T06:27:14.121Z,2.50
2017-10-02T06:29:40.755Z,2.50
2017-10-02T06:32:07.368Z,2.27
2017-10-02T06:34:33.970Z,2.10
2017-10-02T06:37:00.642Z,2.10
2017-10-02T06:39:27.247Z,2.00
2017-10-02T06:41:53.882Z,2.10
2017-10-02T06:44:20.510Z,2.27
2017-10-02T06:46:47.128Z,1.90
2017-10-02T06:49:13.778Z,1.60
2017-10-02T06:51:40.375Z,2.03
2017-10-02T06:54:07.021Z,1.60
2017-10-02T06:56:33.664Z,1.50
2017-10-02T06:59:00.269Z,1.70
2017-10-02T07:01:26.897Z,1.73
2017-10-02T07:03:53.521Z,2.07
2017-10-02T07:06:20.148Z,1.33
2017-10-02T07:08:46.750Z,1.60
2017-10-02T07:11:13.379Z,2.00
2017-10-02T07:13:40.026Z,1.47
2017-10-02T07:16:06.651Z,2.13
2017-10-02T07:18:33.388Z,1.87
2017-10-02T07:21:00.028Z,1.70
2017-10-02T07:23:26.681Z,1.67
2017-10-02T07:25:53.319Z,1.90
2017-10-02T07:28:19.968Z,1.60
2017-10-02T07:30:46.604Z,2.40
2017-10-02T07:33:13.218Z,1.97
2017-10-02T07:35:39.846Z,2.10
2017-10-02T07:38:06.483Z,2.20
2017-10-02T07:40:33.110Z,2.13
2017-10-02T07:42:59.768Z,2.40
2017-10-02T07:45:26.387Z,2.50
2017-10-02T07:47:53.005Z,2.53
2017-10-02T07:50:19.640Z,2.93
2017-10-02T07:52:46.276Z,3.67
2017-10-02T07:55:12.916Z,3.73
2017-10-02T07:57:39.556Z,3.53
2017-10-02T08:00:06.187Z,3.67
2017-10-02T08:02:32.811Z,4.10
2017-10-02T08:04:59.429Z,3.77
2017-10-02T08:07:26.060Z,4.47
2017-10-02T08:09:53.449Z,4.60
2017-10-02T08:12:21.337Z,4.40
2017-10-02T08:14:47.963Z,5.33
2017-10-02T08:17:14.586Z,5.43
2017-10-02T08:19:41.224Z,5.70
2017-10-02T08:22:07.846Z,5.03
2017-10-02T08:24:34.480Z,5.43
2017-10-02T08:27:01.114Z,5.40
2017-10-02T08:29:27.739Z,5.80
2017-10-02T08:31:54.375Z,4.90
2017-10-02T08:34:20.995Z,4.97
2017-10-02T08:36:47.611Z,5.80
2017-10-02T08:39:14.254Z,5.87
2017-10-02T08:41:40.896Z,5.23
2017-10-02T08:44:07.548Z,5.47
2017-10-02T08:46:34.158Z,5.70
2017-10-02T08:49:00.783Z,4.67
2017-10-02T08:51:27.389Z,5.90
2017-10-02T08:53:54.015Z,5.50
2017-10-02T08:56:20.644Z,5.10
2017-10-02T08:58:47.242Z,5.50
2017-10-02T09:01:13.877Z,5.40
2017-10-02T09:03:40.495Z,5.53
2017-10-02T09:06:07.147Z,5.53
2017-10-02T09:08:33.745Z,5.20
2017-10-02T09:11:00.420Z,5.53
2017-10-02T09:13:27.082Z,5.03
2017-10-02T09:15:53.697Z,4.43
2017-10-02T09:18:20.326Z,4.33
2017-10-02T09:20:46.960Z,4.93
2017-10-02T09:23:13.608Z,5.07
2017-10-02T09:25:40.227Z,4.73
2017-10-02T09:28:06.860Z,4.80
2017-10-02T09:30:33.475Z,4.90
2017-10-02T09:33:00.085Z,6.10
2017-10-02T09:35:26.731Z,4.87
2017-10-02T09:37:53.351Z,4.83
2017-10-02T09:40:20.301Z,6.60
2017-10-02T09:42:46.918Z,4.93
2017-10-02T09:45:13.554Z,4.13
2017-10-02T09:47:40.182Z,3.83
2017-10-02T09:50:06.905Z,4.53
2017-10-02T09:52:33.525Z,4.10
2017-10-02T09:55:00.164Z,3.90
2017-10-02T09:57:26.805Z,3.73
2017-10-02T09:59:53.439Z,3.57
2017-10-02T10:02:20.075Z,4.30
2017-10-02T10:04:46.730Z,4.23
2017-10-02T10:07:13.360Z,4.60
2017-10-02T10:09:39.990Z,5.27
2017-10-02T10:12:06.644Z,4.43
2017-10-02T10:14:33.266Z,4.00
2017-10-02T10:16:59.903Z,4.30
2017-10-02T10:19:26.521Z,4.33
2017-10-02T10:21:53.144Z,4.00
2017-10-02T10:24:19.795Z,4.47
2017-10-02T10:26:46.420Z,4.30
2017-10-02T10:29:13.082Z,4.43
2017-10-02T10:31:39.751Z,4.23
2017-10-02T10:34:06.383Z,4.30
2017-10-02T10:36:32.999Z,4.83
2017-10-02T10:38:59.658Z,6.33
2017-10-02T10:41:26.303Z,5.30
2017-10-02T10:43:52.930Z,5.70
2017-10-02T10:46:19.560Z,7.50
2017-10-02T10:48:46.250Z,6.27
2017-10-02T10:51:12.879Z,7.50
2017-10-02T10:53:39.498Z,4.80
2017-10-02T10:56:06.141Z,5.07
2017-10-02T10:58:32.775Z,5.80
2017-10-02T11:00:59.439Z,5.57
2017-10-02T11:03:26.069Z,6.00
2017-10-02T11:05:52.715Z,5.93
2017-10-02T11:08:19.389Z,6.43
2017-10-02T11:10:46.003Z,6.40
2017-10-02T11:13:12.637Z,6.10
2017-10-02T11:15:39.251Z,6.77
2017-10-02T11:18:05.883Z,5.17
2017-10-02T11:20:32.511Z,5.00
2017-10-02T11:22:59.191Z,6.10
2017-10-02T11:25:25.814Z,5.30
2017-10-02T11:27:52.461Z,7.43
2017-10-02T11:30:19.073Z,7.40
2017-10-02T11:32:45.704Z,7.57
2017-10-02T11:35:12.359Z,6.50
2017-10-02T11:37:38.973Z,5.20
2017-10-02T11:40:05.600Z,6.40
2017-10-02T11:42:32.237Z,5.97
2017-10-02T11:44:58.861Z,5.50
2017-10-02T11:47:25.554Z,6.50
2017-10-02T11:49:52.191Z,5.80
2017-10-02T11:52:18.815Z,7.20
2017-10-02T11:54:45.459Z,5.80
2017-10-02T11:57:12.080Z,5.47
2017-10-02T11:59:38.708Z,6.23
2017-10-02T12:02:05.371Z,5.93
2017-10-02T12:04:31.994Z,6.90
2017-10-02T12:06:58.637Z,8.93
2017-10-02T12:09:25.278Z,11.43
2017-10-02T12:11:51.928Z,8.47
2017-10-02T12:14:18.567Z,9.67
2017-10-02T12:16:45.167Z,6.30
2017-10-02T12:19:11.798Z,7.33
2017-10-02T12:21:38.425Z,6.73
2017-10-02T12:24:05.031Z,5.80
2017-10-02T12:26:31.688Z,6.70
2017-10-02T12:28:58.310Z,6.03
2017-10-02T12:31:24.980Z,7.00
2017-10-02T12:33:51.602Z,7.03
2017-10-02T12:36:18.238Z,6.80
2017-10-02T12:38:44.918Z,6.30
2017-10-02T12:41:11.557Z,5.63
2017-10-02T12:43:38.203Z,6.43
2017-10-02T12:46:04.845Z,5.70
2017-10-02T12:48:31.480Z,5.73
2017-10-02T12:50:58.124Z,6.13
2017-10-02T12:53:24.786Z,6.83
2017-10-02T12:55:51.421Z,6.37
2017-10-02T12:58:18.044Z,6.20
2017-10-02T13:00:44.675Z,5.30
2017-10-02T13:03:11.295Z,6.63
2017-10-02T13:05:37.937Z,5.77
2017-10-02T13:08:04.568Z,5.50
2017-10-02T13:10:31.208Z,5.60
2017-10-02T13:12:57.855Z,5.83
2017-10-02T13:15:24.507Z,7.43
2017-10-02T13:17:51.144Z,5.13
2017-10-02T13:20:17.778Z,5.63
2017-10-02T13:22:44.460Z,7.00
2017-10-02T13:25:11.108Z,6.00
2017-10-02T13:27:37.805Z,4.83
2017-10-02T13:30:04.438Z,6.80
2017-10-02T13:32:31.042Z,4.90
2017-10-02T13:34:57.709Z,7.73
2017-10-02T13:37:24.336Z,6.30
2017-10-02T13:39:50.958Z,7.60
2017-10-02T13:42:17.636Z,7.03
2017-10-02T13:44:44.274Z,7.40
2017-10-02T13:47:10.920Z,6.20
2017-10-02T13:49:37.551Z,6.50
2017-10-02T13:52:04.165Z,5.17
2017-10-02T13:54:30.832Z,9.40
2017-10-02T13:56:57.463Z,6.13
2017-10-02T13:59:24.118Z,6.60
2017-10-02T14:01:50.757Z,5.53
2017-10-02T14:04:17.390Z,6.50
2017-10-02T14:06:44.034Z,6.10
2017-10-02T14:09:10.659Z,5.40
2017-10-02T14:11:37.323Z,5.00
2017-10-02T14:14:03.957Z,4.30
2017-10-02T14:16:30.566Z,6.30
2017-10-02T14:18:57.206Z,5.13
2017-10-02T14:21:23.814Z,6.43
2017-10-02T14:23:50.465Z,6.90
2017-10-02T14:26:17.083Z,5.70
2017-10-02T14:28:43.739Z,5.40
2017-10-02T14:31:10.374Z,5.13
2017-10-02T14:33:36.998Z,5.00
2017-10-02T14:36:03.631Z,5.50
2017-10-02T14:38:30.260Z,5.50
2017-10-02T14:40:56.896Z,5.40
2017-10-02T14:43:23.510Z,5.23
2017-10-02T14:45:50.160Z,5.93
2017-10-02T14:48:16.817Z,5.20
2017-10-02T14:50:43.442Z,7.50
2017-10-02T14:53:10.074Z,4.90
2017-10-02T14:55:36.691Z,5.47
2017-10-02T14:58:03.349Z,6.57
2017-10-02T15:00:29.969Z,5.13
2017-10-02T15:02:56.609Z,7.10
2017-10-02T15:05:23.252Z,6.67
2017-10-02T15:07:49.874Z,4.83
2017-10-02T15:10:16.525Z,7.60
2017-10-02T15:12:43.161Z,5.20
2017-10-02T15:15:09.801Z,6.67
2017-10-02T15:17:36.418Z,5.00
2017-10-02T15:20:03.070Z,6.10
2017-10-02T15:22:29.705Z,5.40
2017-10-02T15:24:56.344Z,6.70
2017-10-02T15:27:22.976Z,4.20
2017-10-02T15:29:50.614Z,6.07
2017-10-02T15:32:17.238Z,6.17
2017-10-02T15:34:43.881Z,6.57
2017-10-02T15:37:10.508Z,5.27
2017-10-02T15:39:37.161Z,5.13
2017-10-02T15:42:03.809Z,4.60
2017-10-02T15:44:30.439Z,6.40
2017-10-02T15:46:57.082Z,5.63
2017-10-02T15:49:23.699Z,5.90
2017-10-02T15:51:50.326Z,4.70
2017-10-02T15:54:16.942Z,4.63
2017-10-02T15:56:43.615Z,7.07
2017-10-02T15:59:10.258Z,7.80
2017-10-02T16:01:36.879Z,6.60
2017-10-02T16:04:03.503Z,6.73
2017-10-02T16:06:30.124Z,6.50
2017-10-02T16:08:56.766Z,6.13
2017-10-02T16:11:23.398Z,5.70
2017-10-02T16:13:50.035Z,5.83
2017-10-02T16:16:16.690Z,6.77
2017-10-02T16:18:43.347Z,6.47
2017-10-02T16:21:09.976Z,8.00
2017-10-02T16:23:36.607Z,6.87
2017-10-02T16:26:03.219Z,6.63
2017-10-02T16:28:29.860Z,7.00
2017-10-02T16:30:56.506Z,6.23
2017-10-02T16:33:23.168Z,6.47
2017-10-02T16:35:49.821Z,7.37
2017-10-02T16:38:16.449Z,6.43
2017-10-02T16:40:43.071Z,5.77
2017-10-02T16:43:09.708Z,8.23
2017-10-02T16:45:36.388Z,6.93
2017-10-02T16:48:03.054Z,5.83
2017-10-02T16:50:29.679Z,6.03
2017-10-02T16:52:56.306Z,6.83
2017-10-02T16:55:22.963Z,6.20
2017-10-02T16:57:49.575Z,6.20
2017-10-02T17:00:16.234Z,5.77
2017-10-02T17:02:42.880Z,5.87
2017-10-02T17:05:09.515Z,5.80
2017-10-02T17:07:36.128Z,5.77
2017-10-02T17:10:02.779Z,6.33
2017-10-02T17:12:29.406Z,7.30
2017-10-02T17:14:56.041Z,5.00
2017-10-02T17:17:22.654Z,6.20
2017-10-02T17:19:49.312Z,9.03
2017-10-02T17:22:15.930Z,6.27
2017-10-02T17:24:42.569Z,7.50
2017-10-02T17:27:09.240Z,6.23
2017-10-02T17:29:35.846Z,5.53
2017-10-02T17:32:02.528Z,6.77
2017-10-02T17:34:29.194Z,5.97
2017-10-02T17:36:55.837Z,8.83
2017-10-02T17:39:22.508Z,5.07
2017-10-02T17:41:49.135Z,5.00
2017-10-02T17:44:15.761Z,5.33
2017-10-02T17:46:42.427Z,5.93
2017-10-02T17:49:09.060Z,5.67
2017-10-02T17:51:35.687Z,5.63
2017-10-02T17:54:02.356Z,8.23
2017-10-02T17:56:28.983Z,8.73
2017-10-02T17:58:55.628Z,7.50
2017-10-02T18:01:22.244Z,7.27
2017-10-02T18:03:48.871Z,7.33
2017-10-02T18:06:15.511Z,8.07
2017-10-02T18:08:42.152Z,7.40
2017-10-02T18:11:08.759Z,8.03
2017-10-02T18:13:35.406Z,8.23
2017-10-02T18:16:02.090Z,7.33
2017-10-02T18:18:28.712Z,7.63
2017-10-02T18:20:55.335Z,8.60
2017-10-02T18:23:21.976Z,10.00
2017-10-02T18:25:48.606Z,10.17
2017-10-02T18:28:15.225Z,9.00
2017-10-02T18:30:41.831Z,8.17
2017-10-02T18:33:08.472Z,8.33
2017-10-02T18:35:35.125Z,7.13
2017-10-02T18:38:01.791Z,8.10
2017-10-02T18:40:28.463Z,8.17
2017-10-02T18:42:55.072Z,8.43
2017-10-02T18:45:21.704Z,8.17
2017-10-02T18:47:48.353Z,7.60
2017-10-02T18:50:14.966Z,7.30
2017-10-02T18:52:41.636Z,7.67
2017-10-02T18:55:08.247Z,5.90
2017-10-02T18:57:34.884Z,8.90
2017-10-02T19:00:01.537Z,7.00
2017-10-02T19:02:28.180Z,8.67
2017-10-02T19:04:54.828Z,7.30
2017-10-02T19:07:21.485Z,7.87
2017-10-02T19:09:48.137Z,6.73
2017-10-02T19:12:14.790Z,8.60
2017-10-02T19:14:41.413Z,5.90
2017-10-02T19:17:08.074Z,6.63
2017-10-02T19:19:34.706Z,8.97
2017-10-02T19:22:01.359Z,6.50
2017-10-02T19:24:27.989Z,7.83
2017-10-02T19:26:54.635Z,6.43
2017-10-02T19:29:21.260Z,7.63
2017-10-02T19:31:47.946Z,6.80
2017-10-02T19:34:14.596Z,7.17
2017-10-02T19:36:41.219Z,7.43
2017-10-02T19:39:07.865Z,6.80
2017-10-02T19:41:34.545Z,8.27
2017-10-02T19:44:01.195Z,8.43
2017-10-02T19:46:27.902Z,6.67
2017-10-02T19:48:54.550Z,6.53
2017-10-02T19:51:21.527Z,6.77
2017-10-02T19:53:48.204Z,5.93
2017-10-02T19:56:14.875Z,6.77
2017-10-02T19:58:41.504Z,7.27
2017-10-02T20:01:08.142Z,5.53
2017-10-02T20:03:34.768Z,5.47
2017-10-02T20:06:01.408Z,6.17
2017-10-02T20:08:28.070Z,6.23
2017-10-02T20:10:54.716Z,7.67
2017-10-02T20:13:21.363Z,6.80
2017-10-02T20:15:48.023Z,6.50
2017-10-02T20:18:14.661Z,7.07
2017-10-02T20:20:41.279Z,6.03
2017-10-02T20:23:07.939Z,7.53
2017-10-02T20:25:34.582Z,7.20
2017-10-02T20:28:01.215Z,6.30
2017-10-02T20:30:27.838Z,5.93
2017-10-02T20:32:54.478Z,6.70
2017-10-02T20:35:21.114Z,6.50
2017-10-02T20:37:47.748Z,6.13
2017-10-02T20:40:14.384Z,7.87
2017-10-02T20:42:41.032Z,7.37
2017-10-02T20:45:07.686Z,6.60
2017-10-02T20:47:34.316Z,7.37
2017-10-02T20:50:00.935Z,6.43
2017-10-02T20:52:27.572Z,8.40
2017-10-02T20:54:54.187Z,7.37
2017-10-02T20:57:20.855Z,9.73
2017-10-02T20:59:47.475Z,6.47
2017-10-02T21:02:14.148Z,8.80
2017-10-02T21:04:40.784Z,7.90
2017-10-02T21:07:07.442Z,8.57
2017-10-02T21:09:34.063Z,8.23
2017-10-02T21:12:00.690Z,8.00
2017-10-02T21:14:27.406Z,9.30
2017-10-02T21:16:54.022Z,10.60
2017-10-02T21:19:20.657Z,8.73
2017-10-02T21:21:47.334Z,11.10
2017-10-02T21:24:14.016Z,7.43
2017-10-02T21:26:41.706Z,7.10
2017-10-02T21:29:08.396Z,6.57
2017-10-02T21:31:35.063Z,10.40
2017-10-02T21:34:01.696Z,7.70
2017-10-02T21:36:28.361Z,9.30
2017-10-02T21:38:54.980Z,8.27
2017-10-02T21:41:21.628Z,8.13
2017-10-02T21:43:48.316Z,6.90
2017-10-02T21:46:14.932Z,9.20
2017-10-02T21:48:41.573Z,7.67
2017-10-02T21:51:08.239Z,9.67
2017-10-02T21:53:34.871Z,10.47
2017-10-02T21:56:01.490Z,9.13
2017-10-02T21:58:28.160Z,7.30
2017-10-02T22:00:54.812Z,8.77
2017-10-02T22:03:21.487Z,9.53
2017-10-02T22:05:48.095Z,8.23
2017-10-02T22:08:14.715Z,8.20
2017-10-02T22:10:41.385Z,8.47
2017-10-02T22:13:08.023Z,7.80
2017-10-02T22:15:34.671Z,6.53
2017-10-02T22:18:01.296Z,6.97
2017-10-02T22:20:27.948Z,6.37
2017-10-02T22:22:54.556Z,8.13
2017-10-02T22:25:21.178Z,9.53
2017-10-02T22:27:47.837Z,8.63
2017-10-02T22:30:14.475Z,9.87
2017-10-02T22:32:41.113Z,7.43
2017-10-02T22:35:07.759Z,9.73
2017-10-02T22:37:34.404Z,9.13
2017-10-02T22:40:01.038Z,8.70
2017-10-02T22:42:27.641Z,8.93
2017-10-02T22:44:54.271Z,8.60
2017-10-02T22:47:20.889Z,8.47
2017-10-02T22:49:47.539Z,6.57
2017-10-02T22:52:14.190Z,13.03
2017-10-02T22:54:40.859Z,8.70
2017-10-02T22:57:07.510Z,14.20
2017-10-02T22:59:34.152Z,10.07
2017-10-02T23:02:00.774Z,8.20
2017-10-02T23:04:27.426Z,8.87
2017-10-02T23:06:54.054Z,7.50
2017-10-02T23:09:20.767Z,9.80
2017-10-02T23:11:47.387Z,9.20
2017-10-02T23:14:14.033Z,9.37
2017-10-02T23:16:40.668Z,12.43
2017-10-02T23:19:07.286Z,8.80
2017-10-02T23:21:33.941Z,7.93
2017-10-02T23:24:00.559Z,13.77
2017-10-02T23:26:27.181Z,11.23
2017-10-02T23:28:53.813Z,8.67
2017-10-02T23:31:20.442Z,12.93
2017-10-02T23:33:47.103Z,11.80
2017-10-02T23:36:13.746Z,10.43
2017-10-02T23:38:40.387Z,10.33
2017-10-02T23:41:07.005Z,11.00
2017-10-02T23:43:33.657Z,11.10
2017-10-02T23:46:00.283Z,9.53
2017-10-02T23:48:26.910Z,8.97
2017-10-02T23:50:53.549Z,7.77
2017-10-02T23:53:20.174Z,6.43
2017-10-02T23:55:46.810Z,8.20
2017-10-02T23:58:13.443Z,6.33
